Accueil
METAR-TAF:

METAR-TAF

Aéroports :

Kayseri, Turquie

latitude: 38-47N, longitude: 035-29E, altitude: 1053 m

Observation

Le bulletin a été fait il y a 46 minutes, à 09:50 UTC
Vent 9 kt de nord-ouest
Température 30°C
Humidité 17%
Pression 1014 hPa
Visibilité 10 km ou plus
pas de nuages en-dessous de 1500 mètres et pas de cumulonimbus.

METAR: LTAU 160950Z 31009KT CAVOK 30/02 Q1014 NOSIG RMK RWY07 33006KT 280V030

Heure: 13:36 (10:36 UTC)

Prévision

Le bulletin a été fait il y a 5 heures et 56 minutes, à 04:40 UTC
Prévision valable du 16 à 06 UTC au 17 à 06 UTC
Vent 2 kt de direction variable
Visibilité 10 km ou plus
pas de nuages en-dessous de 1500 mètres et pas de cumulonimbus.

TAF: LTAU 160440Z 1606/1706 VRB02KT CAVOK

Observations et prévisions météorologiques de plus de 4000 aéroports (messages METAR et TAF).

Les stations disponibles sont représentées par des disques jaunes et rouges sur la carte.

Passer la souris dessus pour voir le nom de la station.

Cliquer dessus pour voir les observations et prévisions météorologiques.

Pour changer de carte: cliquez sur les boutons verts avec une croix noire pour zoomer, sur le bouton vert avec un tiret pour effectuer un zoom arrière, ou sur les flèches vertes pour les cartes adjacentes.


METAR-TAF: